createdAt,value
2023-02-28T00:04:27.049Z,2.13
2023-02-28T00:10:08.383Z,1.66
2023-02-28T00:15:32.582Z,1.89
2023-02-28T00:20:53.684Z,1.90
2023-02-28T00:26:13.922Z,1.78
2023-02-28T00:31:52.779Z,2.43
2023-02-28T00:37:16.597Z,2.46
2023-02-28T00:42:39.165Z,2.84
2023-02-28T00:48:01.969Z,2.10
2023-02-28T00:53:25.132Z,2.68
2023-02-28T00:58:48.377Z,1.83
2023-02-28T01:04:29.764Z,2.56
2023-02-28T01:09:50.186Z,2.00
2023-02-28T01:15:14.752Z,2.71
2023-02-28T01:20:38.234Z,2.48
2023-02-28T01:26:00.932Z,2.84
2023-02-28T01:31:27.608Z,2.61
2023-02-28T01:36:45.855Z,4.94
2023-02-28T01:42:10.466Z,2.78
2023-02-28T01:47:35.277Z,2.22
2023-02-28T01:52:59.089Z,4.06
2023-02-28T01:58:24.053Z,2.86
2023-02-28T02:03:47.296Z,2.47
2023-02-28T02:09:11.594Z,2.03
2023-02-28T02:14:36.232Z,3.43
2023-02-28T02:20:23.225Z,2.63
2023-02-28T02:26:02.336Z,2.52
2023-02-28T02:31:41.233Z,1.93
2023-02-28T02:37:28.593Z,1.70
2023-02-28T02:42:48.261Z,1.67
2023-02-28T02:48:06.997Z,2.20
2023-02-28T02:53:31.011Z,1.75
2023-02-28T02:58:48.103Z,2.60
2023-02-28T03:04:10.427Z,1.89
2023-02-28T03:09:32.602Z,2.86
2023-02-28T03:14:54.326Z,2.70
2023-02-28T03:20:13.913Z,2.33
2023-02-28T03:25:33.211Z,2.52
2023-02-28T03:30:52.334Z,2.67
2023-02-28T03:36:16.236Z,2.81
2023-02-28T03:41:39.775Z,3.24
2023-02-28T03:47:04.918Z,2.44
2023-02-28T03:52:26.983Z,1.83
2023-02-28T03:57:51.742Z,1.86
2023-02-28T04:03:13.158Z,2.91
2023-02-28T04:08:30.408Z,2.93
2023-02-28T04:14:05.897Z,2.16
2023-02-28T04:19:23.370Z,3.27
2023-02-28T04:24:41.344Z,3.64
2023-02-28T04:30:04.963Z,2.57
2023-02-28T04:35:26.465Z,3.11
2023-02-28T04:40:51.387Z,2.34
2023-02-28T04:46:17.188Z,4.90
2023-02-28T04:51:39.591Z,2.55
2023-02-28T04:56:58.135Z,2.50
2023-02-28T05:02:22.124Z,3.86
2023-02-28T05:07:45.657Z,3.40
2023-02-28T05:13:04.215Z,3.69
2023-02-28T05:18:24.073Z,3.59
2023-02-28T05:23:42.304Z,2.78
2023-02-28T05:29:05.617Z,2.60
2023-02-28T05:34:22.779Z,3.06
2023-02-28T05:39:42.804Z,3.18
2023-02-28T05:45:07.440Z,2.62
2023-02-28T05:50:30.960Z,2.77
2023-02-28T05:55:49.177Z,2.85
2023-02-28T06:01:14.717Z,2.63
2023-02-28T06:06:37.138Z,2.60
2023-02-28T06:11:55.023Z,2.66
2023-02-28T06:17:13.661Z,2.35
2023-02-28T06:23:03.042Z,3.13
2023-02-28T06:28:25.970Z,3.28
2023-02-28T06:33:48.715Z,3.32
2023-02-28T06:39:13.622Z,3.75
2023-02-28T06:44:37.846Z,2.65
2023-02-28T06:50:00.165Z,3.42
2023-02-28T06:55:24.475Z,3.25
2023-02-28T07:00:48.622Z,2.99
2023-02-28T07:06:08.092Z,2.65
2023-02-28T07:11:31.208Z,3.31
2023-02-28T07:16:54.055Z,2.56
2023-02-28T07:22:16.411Z,3.64
2023-02-28T07:27:42.324Z,2.74
2023-02-28T07:33:02.197Z,2.69
2023-02-28T07:38:27.053Z,5.40
2023-02-28T07:43:47.740Z,2.14
2023-02-28T07:49:06.547Z,3.22
2023-02-28T07:54:31.008Z,3.19
2023-02-28T07:59:55.758Z,4.27
2023-02-28T08:05:17.794Z,3.62
2023-02-28T08:10:42.410Z,2.58
2023-02-28T08:16:07.117Z,3.61
2023-02-28T08:21:30.760Z,3.01
2023-02-28T08:27:12.998Z,4.70
2023-02-28T08:32:34.654Z,3.67
2023-02-28T08:38:13.260Z,4.34
2023-02-28T08:43:35.316Z,2.85
2023-02-28T08:48:59.941Z,4.99
2023-02-28T08:54:23.723Z,3.42
2023-02-28T08:59:47.597Z,4.69
2023-02-28T09:05:12.111Z,3.82
2023-02-28T09:10:31.431Z,3.75
2023-02-28T09:15:56.814Z,4.36
2023-02-28T09:21:21.573Z,4.38
2023-02-28T09:26:43.076Z,2.91
2023-02-28T09:32:02.796Z,5.01
2023-02-28T09:37:51.203Z,5.29
2023-02-28T09:43:16.074Z,4.24
2023-02-28T09:48:38.462Z,4.36
2023-02-28T09:54:02.126Z,3.75
2023-02-28T09:59:20.925Z,4.79
2023-02-28T10:05:15.012Z,5.38
2023-02-28T10:10:32.290Z,4.69
2023-02-28T10:16:37.311Z,6.11
2023-02-28T10:22:00.478Z,6.72
2023-02-28T10:27:25.594Z,5.58
2023-02-28T10:32:48.488Z,5.79
2023-02-28T10:38:11.977Z,5.40
2023-02-28T10:43:32.615Z,6.72
2023-02-28T10:49:21.999Z,6.49
2023-02-28T10:54:42.721Z,6.05
2023-02-28T11:00:06.008Z,6.03
2023-02-28T11:05:32.328Z,5.90
2023-02-28T11:11:16.848Z,5.03
2023-02-28T11:16:38.528Z,4.33
2023-02-28T11:22:02.947Z,4.88
2023-02-28T11:27:26.903Z,6.24
2023-02-28T11:33:01.956Z,7.65
2023-02-28T11:38:42.129Z,6.27
2023-02-28T11:44:01.315Z,5.54
2023-02-28T11:50:00.729Z,7.07
2023-02-28T11:55:30.396Z,6.82
2023-02-28T12:01:08.334Z,6.19
2023-02-28T12:06:34.542Z,5.55
2023-02-28T12:12:00.413Z,6.10
2023-02-28T12:17:26.167Z,6.33
2023-02-28T12:22:56.221Z,7.08
2023-02-28T12:28:50.204Z,6.45
2023-02-28T12:34:09.627Z,6.77
2023-02-28T12:39:30.093Z,7.26
2023-02-28T12:44:52.973Z,7.25
2023-02-28T12:50:16.271Z,6.07
2023-02-28T12:55:33.787Z,9.75
2023-02-28T13:00:58.030Z,6.62
2023-02-28T13:06:43.393Z,6.56
2023-02-28T13:12:07.043Z,6.52
2023-02-28T13:17:36.040Z,7.30
2023-02-28T13:23:01.785Z,8.46
2023-02-28T13:28:28.959Z,5.89
2023-02-28T13:34:40.176Z,6.71
2023-02-28T13:40:18.806Z,6.15
2023-02-28T13:45:49.866Z,6.60
2023-02-28T13:51:24.715Z,6.29
2023-02-28T13:56:57.673Z,6.58
2023-02-28T14:02:33.779Z,9.78
2023-02-28T14:08:05.078Z,5.64
2023-02-28T14:13:30.562Z,5.85
2023-02-28T14:19:01.275Z,6.55
2023-02-28T14:24:23.808Z,7.35
2023-02-28T14:29:55.762Z,6.21
2023-02-28T14:35:58.634Z,6.02
2023-02-28T14:41:26.606Z,6.20
2023-02-28T14:46:48.638Z,7.51
2023-02-28T14:52:07.432Z,7.88
2023-02-28T14:57:31.600Z,7.75
2023-02-28T15:02:55.224Z,7.60
2023-02-28T15:08:20.284Z,7.11
2023-02-28T15:13:45.217Z,7.10
2023-02-28T15:19:09.720Z,8.55
2023-02-28T15:24:34.600Z,9.15
2023-02-28T15:29:59.192Z,8.35
2023-02-28T15:35:25.756Z,6.56
2023-02-28T15:40:45.005Z,6.10
2023-02-28T15:46:04.357Z,7.74
2023-02-28T15:51:21.810Z,10.24
2023-02-28T15:56:39.631Z,7.60
2023-02-28T16:01:59.165Z,6.39
2023-02-28T16:07:48.790Z,8.11
2023-02-28T16:13:09.786Z,7.39
2023-02-28T16:18:58.519Z,8.51
2023-02-28T16:24:22.956Z,8.82
2023-02-28T16:29:47.897Z,6.28
2023-02-28T16:35:12.343Z,5.41
2023-02-28T16:40:36.324Z,6.13
2023-02-28T16:46:01.707Z,9.92
2023-02-28T16:51:56.034Z,8.42
2023-02-28T16:57:19.011Z,7.64
2023-02-28T17:02:44.475Z,9.54
2023-02-28T17:08:08.181Z,8.67
2023-02-28T17:13:34.077Z,7.07
2023-02-28T17:18:56.060Z,11.39
2023-02-28T17:24:30.194Z,20.10
2023-02-28T17:29:38.449Z,12.50
2023-02-28T17:34:56.963Z,11.26
2023-02-28T17:40:19.936Z,8.59
2023-02-28T17:46:09.686Z,7.96
2023-02-28T17:51:28.358Z,7.95
2023-02-28T17:56:51.910Z,9.10
2023-02-28T18:02:17.257Z,7.81
2023-02-28T18:07:38.076Z,8.72
2023-02-28T18:13:05.848Z,10.20
2023-02-28T18:18:29.110Z,15.48
2023-02-28T18:23:54.011Z,14.84
2023-02-28T18:29:18.244Z,13.43
2023-02-28T18:34:36.492Z,11.64
2023-02-28T18:40:01.902Z,12.00
2023-02-28T18:45:27.972Z,10.20
2023-02-28T18:50:49.837Z,10.32
2023-02-28T18:56:10.033Z,10.65
2023-02-28T19:01:28.784Z,14.50
2023-02-28T19:06:52.956Z,15.19
2023-02-28T19:12:17.282Z,16.41
2023-02-28T19:17:41.163Z,14.84
2023-02-28T19:23:03.323Z,13.65
2023-02-28T19:28:27.556Z,11.87
2023-02-28T19:33:49.232Z,8.37
2023-02-28T19:39:13.999Z,8.17
2023-02-28T19:44:37.882Z,8.35
2023-02-28T19:49:58.310Z,7.86
2023-02-28T19:55:42.458Z,9.28
2023-02-28T20:01:31.369Z,7.54
2023-02-28T20:07:16.889Z,8.96
2023-02-28T20:12:40.459Z,7.92
2023-02-28T20:17:59.431Z,8.11
2023-02-28T20:23:24.083Z,7.52
2023-02-28T20:28:47.940Z,8.55
2023-02-28T20:34:11.772Z,12.71
2023-02-28T20:40:14.382Z,10.17
2023-02-28T20:45:38.204Z,7.62
2023-02-28T20:51:25.052Z,10.90
2023-02-28T20:56:48.389Z,13.56
2023-02-28T21:02:09.335Z,8.44
2023-02-28T21:07:28.361Z,8.33
2023-02-28T21:12:54.115Z,8.21
2023-02-28T21:18:19.744Z,7.61
2023-02-28T21:23:43.783Z,8.12
2023-02-28T21:29:04.297Z,11.18
2023-02-28T21:34:28.833Z,10.36
2023-02-28T21:40:10.837Z,11.10
2023-02-28T21:45:30.485Z,8.77
2023-02-28T21:50:55.829Z,10.12
2023-02-28T21:56:53.684Z,10.43
2023-02-28T22:02:14.826Z,9.06
2023-02-28T22:07:39.472Z,10.12
2023-02-28T22:13:07.134Z,12.38
2023-02-28T22:18:53.448Z,10.15
2023-02-28T22:24:16.094Z,9.36
2023-02-28T22:29:40.720Z,8.78
2023-02-28T22:35:04.061Z,8.32
2023-02-28T22:40:23.420Z,6.94
2023-02-28T22:45:42.204Z,8.23
2023-02-28T22:51:06.837Z,10.70
2023-02-28T22:56:32.151Z,9.20
2023-02-28T23:01:56.588Z,7.92
2023-02-28T23:07:21.629Z,8.28
2023-02-28T23:12:46.094Z,9.97
2023-02-28T23:18:27.396Z,10.66
2023-02-28T23:23:44.580Z,10.65
2023-02-28T23:29:08.247Z,8.67
2023-02-28T23:34:26.697Z,9.87
2023-02-28T23:40:14.626Z,9.84
2023-02-28T23:45:32.131Z,10.63
2023-02-28T23:50:56.152Z,11.49
2023-02-28T23:56:24.552Z,11.12
